Time;durP1;ratioP1;P1;durP2;ratioP2;P2;SDS_P1;SDS_P2;PMS_P1;PMS_P2;Temp;Humidity;BMP_temperature;BMP_pressure;BME280_temperature;BME280_humidity;BME280_pressure;Samples;Min_cycle;Max_cycle;Signal;HPM_P1;HPM_P2
2022/11/18 00:01:18;;;;;;;28.17;16.05;;;7.70;99.90;;;;;;5090196;28;20058;-63
2022/11/18 00:03:44;;;;;;;25.15;15.85;;;7.70;99.90;;;;;;5091569;28;20133;-64
2022/11/18 00:06:13;;;;;;;26.65;15.82;;;7.60;99.90;;;;;;5087180;28;20094;-64
2022/11/18 00:08:38;;;;;;;26.45;16.83;;;7.60;99.90;;;;;;5088872;28;20046;-64
2022/11/18 00:11:08;;;;;;;28.27;17.52;;;7.60;99.90;;;;;;5089955;28;20202;-64
2022/11/18 00:16:18;;;;;;;29.55;17.20;;;7.70;99.90;;;;;;5083155;28;20050;-64
2022/11/18 00:18:44;;;;;;;33.83;18.25;;;7.60;99.90;;;;;;5070357;28;20044;-64
2022/11/18 00:21:11;;;;;;;30.92;17.30;;;7.70;99.90;;;;;;5067111;28;20082;-64
2022/11/18 00:23:37;;;;;;;34.10;18.52;;;7.70;99.90;;;;;;5071285;28;20040;-64
2022/11/18 00:26:12;;;;;;;33.00;19.15;;;7.70;99.90;;;;;;5063372;28;20035;-64
2022/11/18 00:28:39;;;;;;;36.38;19.77;;;7.70;99.90;;;;;;5083313;28;20032;-64
2022/11/18 00:31:15;;;;;;;35.55;20.00;;;7.70;99.90;;;;;;5077389;28;20050;-64
2022/11/18 00:33:40;;;;;;;36.03;19.13;;;7.60;99.90;;;;;;5052964;28;20074;-64
2022/11/18 00:36:08;;;;;;;34.47;18.88;;;7.70;99.90;;;;;;5079047;28;20060;-64
2022/11/18 00:38:34;;;;;;;33.50;19.35;;;7.70;99.90;;;;;;5090384;28;20420;-64
2022/11/18 00:41:01;;;;;;;35.80;19.23;;;7.70;99.90;;;;;;5071207;28;20043;-64
2022/11/18 00:43:27;;;;;;;33.45;19.33;;;7.70;99.90;;;;;;5075320;28;20162;-64
2022/11/18 00:45:52;;;;;;;34.88;19.83;;;7.60;99.90;;;;;;5094151;28;20119;-64
2022/11/18 00:48:20;;;;;;;36.45;19.00;;;7.70;99.90;;;;;;5092061;28;20047;-64
2022/11/18 00:50:50;;;;;;;39.47;19.65;;;7.70;99.90;;;;;;5090260;28;20530;-64
2022/11/18 00:53:17;;;;;;;35.85;20.70;;;7.70;99.90;;;;;;5082638;28;20075;-64
2022/11/18 00:55:42;;;;;;;36.83;20.45;;;7.70;99.90;;;;;;5085138;28;20444;-63
2022/11/18 00:58:08;;;;;;;37.28;19.80;;;7.70;99.90;;;;;;5083530;28;20159;-64
2022/11/18 01:00:34;;;;;;;38.97;20.33;;;7.70;99.90;;;;;;5085596;28;20032;-64
2022/11/18 01:03:00;;;;;;;37.63;20.92;;;7.70;99.90;;;;;;5088343;28;20508;-64
2022/11/18 01:05:25;;;;;;;37.50;19.58;;;7.80;99.90;;;;;;5083817;28;20040;-64
2022/11/18 01:07:51;;;;;;;38.55;19.92;;;7.70;99.90;;;;;;5086085;28;20044;-64
2022/11/18 01:10:16;;;;;;;36.25;19.10;;;7.70;99.90;;;;;;5085522;28;20044;-64
2022/11/18 01:15:26;;;;;;;35.75;20.85;;;7.70;99.90;;;;;;5086968;28;20047;-64
2022/11/18 01:17:51;;;;;;;40.60;21.45;;;7.70;99.90;;;;;;5085141;28;20110;-64
2022/11/18 01:20:17;;;;;;;36.83;19.70;;;7.70;99.90;;;;;;5089238;28;20048;-64
2022/11/18 01:22:43;;;;;;;37.13;20.48;;;7.70;99.90;;;;;;5090536;28;20035;-64
2022/11/18 01:25:08;;;;;;;37.47;20.52;;;7.70;99.90;;;;;;5084795;28;20032;-64
2022/11/18 01:27:34;;;;;;;37.38;21.80;;;7.70;99.90;;;;;;5088927;28;20495;-64
2022/11/18 01:29:59;;;;;;;37.70;20.45;;;7.70;99.90;;;;;;5098399;28;20040;-64
2022/11/18 01:32:26;;;;;;;36.20;20.83;;;7.70;99.90;;;;;;5098432;28;20036;-64
2022/11/18 01:34:52;;;;;;;39.10;21.80;;;7.70;99.90;;;;;;5088598;28;20040;-64
2022/11/18 01:37:17;;;;;;;39.03;19.70;;;7.70;99.90;;;;;;5091133;28;20538;-64
2022/11/18 01:39:43;;;;;;;39.25;20.95;;;7.70;99.90;;;;;;5094540;28;20131;-64
2022/11/18 01:42:14;;;;;;;40.95;21.75;;;7.70;99.90;;;;;;5087042;28;20036;-64
2022/11/18 01:45:03;;;;;;;38.85;21.70;;;7.70;99.90;;;;;;5091422;28;20036;-64
2022/11/18 01:47:37;;;;;;;42.28;21.80;;;7.70;99.90;;;;;;5089964;28;20023;-64
2022/11/18 01:50:04;;;;;;;41.28;22.08;;;7.70;99.90;;;;;;5094761;28;20036;-64
2022/11/18 01:52:32;;;;;;;40.53;22.23;;;7.70;99.90;;;;;;5071830;28;20098;-64
2022/11/18 01:55:09;;;;;;;40.22;21.45;;;7.70;99.90;;;;;;5071482;28;20040;-64
2022/11/18 01:57:35;;;;;;;44.75;23.27;;;7.70;99.90;;;;;;5073309;28;20040;-64
2022/11/18 02:00:03;;;;;;;44.45;23.10;;;7.80;99.90;;;;;;5088452;28;20047;-64
2022/11/18 02:02:31;;;;;;;47.97;23.45;;;7.70;99.90;;;;;;5072786;28;20048;-64
2022/11/18 02:04:59;;;;;;;45.15;23.23;;;7.70;99.90;;;;;;5087712;28;20540;-64
2022/11/18 02:07:25;;;;;;;41.75;22.45;;;7.70;99.90;;;;;;5052926;28;20115;-64
2022/11/18 02:09:52;;;;;;;46.83;23.75;;;7.70;99.90;;;;;;5073946;28;20067;-64
2022/11/18 02:12:18;;;;;;;43.30;23.40;;;7.70;99.90;;;;;;5068950;28;20449;-64
2022/11/18 02:14:46;;;;;;;44.70;24.77;;;7.70;99.90;;;;;;5086429;28;20032;-63
2022/11/18 02:17:43;;;;;;;45.45;23.77;;;7.70;99.90;;;;;;5089054;28;20115;-64
2022/11/18 02:20:21;;;;;;;44.63;23.95;;;7.70;99.90;;;;;;5091572;28;20037;-64
2022/11/18 02:23:22;;;;;;;45.47;24.08;;;7.70;99.90;;;;;;5087789;28;20040;-64
2022/11/18 02:26:25;;;;;;;41.28;22.17;;;7.70;99.90;;;;;;5090212;28;20089;-64
2022/11/18 02:29:16;;;;;;;42.35;22.90;;;7.70;99.90;;;;;;5077620;28;20051;-64
2022/11/18 02:31:42;;;;;;;;;;;7.70;99.90;;;;;;5077080;28;20069;-64
2022/11/18 02:34:14;;;;;;;40.65;21.58;;;7.70;99.90;;;;;;5087522;28;20023;-64
2022/11/18 02:36:59;;;;;;;44.65;22.30;;;7.70;99.90;;;;;;5070930;28;20032;-64
2022/11/18 02:39:40;;;;;;;40.30;21.92;;;7.70;99.90;;;;;;5076532;28;20085;-63
2022/11/18 02:42:10;;;;;;;41.70;21.77;;;7.70;99.90;;;;;;5079822;28;20401;-64
2022/11/18 02:44:39;;;;;;;40.70;22.13;;;7.70;99.90;;;;;;5064780;28;20044;-63
2022/11/18 02:47:09;;;;;;;39.13;21.65;;;7.70;99.90;;;;;;5087549;28;20153;-64
2022/11/18 02:49:40;;;;;;;36.85;20.60;;;7.70;99.90;;;;;;5091109;28;20528;-64
2022/11/18 02:52:08;;;;;;;40.45;21.33;;;7.70;99.90;;;;;;5068577;28;20047;-63
2022/11/18 02:54:37;;;;;;;40.33;21.30;;;7.70;99.90;;;;;;5070849;28;20036;-63
2022/11/18 02:57:04;;;;;;;39.45;21.50;;;7.70;99.90;;;;;;5088267;28;20093;-63
2022/11/18 02:59:29;;;;;;;36.33;20.55;;;7.70;99.90;;;;;;5090442;28;20042;-63
2022/11/18 03:01:55;;;;;;;41.42;20.38;;;7.70;99.90;;;;;;5082720;28;20114;-63
2022/11/18 03:04:22;;;;;;;39.53;21.02;;;7.70;99.90;;;;;;5089657;28;20032;-63
2022/11/18 03:07:00;;;;;;;33.22;19.77;;;7.70;99.90;;;;;;5087672;28;20481;-63
2022/11/18 03:09:31;;;;;;;43.47;21.60;;;7.70;99.90;;;;;;5085672;28;20040;-63
2022/11/18 03:12:17;;;;;;;36.97;20.80;;;7.70;99.90;;;;;;5086964;28;20545;-63
2022/11/18 03:14:46;;;;;;;32.28;19.63;;;7.70;99.90;;;;;;5087834;28;20040;-63
2022/11/18 03:17:18;;;;;;;38.55;21.13;;;7.70;99.90;;;;;;5088737;28;20036;-63
2022/11/18 03:20:08;;;;;;;35.45;20.08;;;7.70;99.90;;;;;;5087548;28;20069;-63
2022/11/18 03:22:37;;;;;;;34.10;19.47;;;7.70;99.90;;;;;;5086244;28;20042;-63
2022/11/18 03:25:18;;;;;;;40.28;21.90;;;7.60;99.90;;;;;;5090710;28;20305;-63
2022/11/18 03:27:54;;;;;;;39.10;19.95;;;7.70;99.90;;;;;;5080081;28;20032;-63
2022/11/18 03:30:23;;;;;;;39.65;21.60;;;7.70;99.90;;;;;;5071836;28;20048;-64
2022/11/18 03:32:56;;;;;;;39.25;22.83;;;7.70;99.90;;;;;;5069303;28;20098;-64
2022/11/18 03:35:25;;;;;;;38.10;21.02;;;7.60;99.90;;;;;;5069840;28;20043;-64
2022/11/18 03:37:58;;;;;;;43.33;21.83;;;7.70;99.90;;;;;;5090267;28;20042;-64
2022/11/18 03:40:28;;;;;;;39.53;21.38;;;7.60;99.90;;;;;;5087181;28;20080;-64
2022/11/18 03:43:02;;;;;;;38.08;21.40;;;7.60;99.90;;;;;;5065829;28;20036;-64
2022/11/18 03:45:35;;;;;;;37.60;20.67;;;7.70;99.90;;;;;;5068542;28;20128;-64
2022/11/18 03:48:11;;;;;;;39.95;21.25;;;7.60;99.90;;;;;;5068628;28;20036;-64
2022/11/18 03:50:41;;;;;;;41.45;21.55;;;7.60;99.90;;;;;;5086150;28;20051;-64
2022/11/18 03:53:09;;;;;;;37.83;20.88;;;7.60;99.90;;;;;;5090919;28;20483;-64
2022/11/18 03:55:48;;;;;;;40.67;22.13;;;7.60;99.90;;;;;;5087875;28;20071;-64
2022/11/18 03:58:27;;;;;;;39.42;21.08;;;7.60;99.90;;;;;;5090613;28;20574;-64
2022/11/18 04:01:13;;;;;;;36.38;20.63;;;7.60;99.90;;;;;;5082513;28;20085;-64
2022/11/18 04:03:39;;;;;;;38.72;20.67;;;7.60;99.90;;;;;;5088021;28;20032;-63
2022/11/18 04:06:15;;;;;;;34.10;20.33;;;7.60;99.90;;;;;;5071213;28;20039;-64
2022/11/18 04:08:44;;;;;;;35.42;19.88;;;7.60;99.90;;;;;;5085319;28;20489;-64
2022/11/18 04:14:12;;;;;;;37.88;19.58;;;7.60;99.90;;;;;;5087917;28;20101;-64
2022/11/18 04:16:50;;;;;;;33.67;18.35;;;7.60;99.90;;;;;;5091147;28;20036;-64
2022/11/18 04:19:16;;;;;;;36.05;19.73;;;7.60;99.90;;;;;;5094227;28;20493;-64
2022/11/18 04:21:41;;;;;;;34.63;20.25;;;7.60;99.90;;;;;;5087952;28;20040;-64
2022/11/18 04:24:07;;;;;;;33.90;19.23;;;7.60;99.90;;;;;;5091808;28;20036;-65
2022/11/18 04:26:33;;;;;;;39.08;20.08;;;7.60;99.90;;;;;;5091752;28;20557;-64
2022/11/18 04:28:58;;;;;;;36.35;19.10;;;7.60;99.90;;;;;;5094984;28;20028;-64
2022/11/18 04:31:24;;;;;;;33.08;19.70;;;7.50;99.90;;;;;;5086472;28;20054;-64
2022/11/18 04:33:49;;;;;;;38.60;19.08;;;7.60;99.90;;;;;;5088894;28;20082;-64
2022/11/18 04:36:15;;;;;;;35.40;18.90;;;7.60;99.90;;;;;;5074996;28;20119;-64
2022/11/18 04:38:40;;;;;;;36.35;20.60;;;7.60;99.90;;;;;;5086400;28;20054;-64
2022/11/18 04:41:06;;;;;;;38.83;20.73;;;7.60;99.90;;;;;;5088710;28;20043;-64
2022/11/18 04:43:31;;;;;;;38.75;19.73;;;7.60;99.90;;;;;;5089795;28;20040;-64
2022/11/18 04:45:57;;;;;;;46.08;22.85;;;7.50;99.90;;;;;;5084652;28;20473;-65
2022/11/18 04:48:23;;;;;;;38.85;21.17;;;7.50;99.90;;;;;;5100164;28;20052;-65
2022/11/18 04:50:48;;;;;;;47.13;22.02;;;7.50;99.90;;;;;;5083078;28;20100;-65
2022/11/18 04:53:14;;;;;;;38.15;20.67;;;7.50;99.90;;;;;;5087579;28;20058;-64
2022/11/18 04:55:39;;;;;;;41.60;21.15;;;7.50;99.90;;;;;;5081928;28;20111;-64
2022/11/18 04:58:05;;;;;;;38.17;20.13;;;7.50;99.90;;;;;;5074960;28;20172;-64
2022/11/18 05:00:30;;;;;;;40.28;20.27;;;7.50;99.90;;;;;;5071657;28;20108;-64
2022/11/18 05:02:56;;;;;;;33.88;19.20;;;7.50;99.90;;;;;;5069442;28;20035;-64
2022/11/18 05:05:21;;;;;;;35.50;18.38;;;7.60;99.90;;;;;;5083254;28;20813;-64
2022/11/18 05:07:47;;;;;;;34.97;20.17;;;7.50;99.90;;;;;;5092234;28;20064;-64
2022/11/18 05:10:12;;;;;;;35.65;18.75;;;7.50;99.90;;;;;;5089340;28;20047;-64
2022/11/18 05:12:51;;;;;;;38.13;19.52;;;7.50;99.90;;;;;;5087926;28;20020;-65
2022/11/18 05:15:19;;;;;;;33.95;18.95;;;7.50;99.90;;;;;;5086791;28;20056;-65
2022/11/18 05:17:45;;;;;;;34.13;18.60;;;7.50;99.90;;;;;;5074728;28;20036;-65
2022/11/18 05:20:11;;;;;;;34.50;18.42;;;7.50;99.90;;;;;;5086664;28;20050;-65
2022/11/18 05:22:37;;;;;;;35.40;18.80;;;7.50;99.90;;;;;;5074375;28;20036;-65
2022/11/18 05:25:03;;;;;;;34.85;19.40;;;7.40;99.90;;;;;;5089469;28;20503;-65
2022/11/18 05:27:29;;;;;;;31.42;17.30;;;7.40;99.90;;;;;;5091864;28;20036;-64
2022/11/18 05:29:54;;;;;;;35.90;18.27;;;7.40;99.90;;;;;;5089111;28;20451;-65
2022/11/18 05:32:20;;;;;;;38.67;19.58;;;7.40;99.90;;;;;;5081756;28;20054;-65
2022/11/18 05:34:45;;;;;;;35.40;19.83;;;7.40;99.90;;;;;;5083505;28;20035;-65
2022/11/18 05:37:11;;;;;;;37.53;20.05;;;7.40;99.90;;;;;;5092519;28;20094;-64
2022/11/18 05:39:37;;;;;;;36.55;19.20;;;7.30;99.90;;;;;;5083722;28;20040;-64
2022/11/18 05:44:47;;;;;;;38.78;20.60;;;7.40;99.90;;;;;;5088523;28;20130;-65
2022/11/18 05:47:12;;;;;;;38.47;19.88;;;7.30;99.90;;;;;;5096926;28;20114;-65
2022/11/18 05:49:38;;;;;;;39.28;20.90;;;7.40;99.90;;;;;;5090196;28;20028;-65
2022/11/18 05:52:03;;;;;;;42.88;21.75;;;7.40;99.90;;;;;;5084657;28;20077;-65
2022/11/18 05:54:30;;;;;;;42.90;21.65;;;7.40;99.90;;;;;;5090711;28;20077;-64
2022/11/18 05:56:55;;;;;;;44.50;22.75;;;7.30;99.90;;;;;;5071479;28;20032;-65
2022/11/18 05:59:21;;;;;;;41.53;21.58;;;7.30;99.90;;;;;;5091127;28;20459;-64
2022/11/18 06:01:56;;;;;;;36.00;20.27;;;7.40;99.90;;;;;;5071910;28;20040;-64
2022/11/18 06:04:28;;;;;;;39.83;18.77;;;7.30;99.90;;;;;;5088462;28;20044;-65
2022/11/18 06:06:59;;;;;;;39.80;21.17;;;7.40;99.90;;;;;;5093067;28;21905;-64
2022/11/18 06:09:29;;;;;;;38.75;20.02;;;7.30;99.90;;;;;;5069010;28;20094;-65
2022/11/18 06:11:58;;;;;;;40.40;20.25;;;7.30;99.90;;;;;;5090011;28;20040;-65
2022/11/18 06:14:26;;;;;;;38.53;19.33;;;7.40;99.90;;;;;;5077028;28;20429;-64
2022/11/18 06:16:57;;;;;;;37.78;20.13;;;7.30;99.90;;;;;;5086064;28;20044;-64
2022/11/18 06:19:23;;;;;;;36.13;19.10;;;7.40;99.90;;;;;;5092670;28;20166;-64
2022/11/18 06:21:49;;;;;;;34.80;17.48;;;7.40;99.90;;;;;;5092003;28;20111;-64
2022/11/18 06:24:15;;;;;;;34.65;18.85;;;7.30;99.90;;;;;;5090618;28;20032;-64
2022/11/18 06:26:42;;;;;;;38.63;16.98;;;7.30;99.90;;;;;;5071082;28;20126;-65
2022/11/18 06:29:10;;;;;;;31.35;16.73;;;7.30;99.90;;;;;;5074541;28;20040;-64
2022/11/18 06:31:35;;;;;;;32.05;16.40;;;7.30;99.90;;;;;;5074369;28;20101;-64
2022/11/18 06:34:01;;;;;;;33.35;17.00;;;7.30;99.90;;;;;;5088292;28;20036;-64
2022/11/18 06:36:26;;;;;;;31.80;16.83;;;7.30;99.90;;;;;;5082590;28;20043;-64
2022/11/18 06:38:52;;;;;;;30.90;16.55;;;7.30;99.90;;;;;;5091166;28;20032;-65
2022/11/18 06:41:17;;;;;;;34.22;16.70;;;7.30;99.90;;;;;;5069127;28;20094;-64
2022/11/18 06:43:43;;;;;;;35.22;18.40;;;7.30;99.90;;;;;;5063978;28;20040;-64
2022/11/18 06:48:56;;;;;;;35.15;16.23;;;7.30;99.90;;;;;;5075952;28;20529;-64
2022/11/18 06:51:22;;;;;;;29.55;15.73;;;7.30;99.90;;;;;;5068318;28;20048;-64
2022/11/18 06:53:48;;;;;;;33.80;16.95;;;7.30;99.90;;;;;;5091263;28;20440;-64
2022/11/18 06:56:15;;;;;;;33.92;15.65;;;7.30;99.90;;;;;;5089703;28;20049;-64
2022/11/18 06:58:41;;;;;;;27.08;14.20;;;7.30;99.90;;;;;;5085060;28;20040;-64
2022/11/18 07:01:16;;;;;;;28.05;15.13;;;7.30;99.90;;;;;;5072258;28;20040;-64
2022/11/18 07:03:43;;;;;;;30.70;15.30;;;7.30;99.90;;;;;;5065672;28;20119;-64
2022/11/18 07:06:10;;;;;;;31.13;16.40;;;7.30;99.90;;;;;;5091578;28;20028;-64
2022/11/18 07:08:37;;;;;;;34.95;16.55;;;7.20;99.90;;;;;;5090724;28;20366;-65
2022/11/18 07:11:08;;;;;;;29.23;13.90;;;7.30;99.90;;;;;;5069678;28;20047;-64
2022/11/18 07:13:34;;;;;;;29.88;14.80;;;7.30;99.90;;;;;;5084014;28;20063;-63
2022/11/18 07:16:08;;;;;;;28.33;15.38;;;7.30;99.90;;;;;;5065861;28;20101;-64
2022/11/18 07:18:36;;;;;;;26.33;14.15;;;7.30;99.90;;;;;;5074131;28;20052;-64
2022/11/18 07:21:04;;;;;;;29.70;14.85;;;7.30;99.90;;;;;;5073423;28;20047;-64
2022/11/18 07:23:31;;;;;;;28.08;15.10;;;7.30;99.90;;;;;;5087565;28;20123;-64
2022/11/18 07:25:56;;;;;;;29.40;14.15;;;7.30;99.90;;;;;;5071092;28;20032;-64
2022/11/18 07:28:22;;;;;;;27.55;14.95;;;7.30;99.90;;;;;;5073719;28;20047;-64
2022/11/18 07:30:48;;;;;;;31.35;14.70;;;7.30;99.90;;;;;;5089397;28;20055;-64
2022/11/18 07:33:13;;;;;;;29.50;13.70;;;7.30;99.90;;;;;;5087072;28;20062;-64
2022/11/18 07:35:39;;;;;;;28.88;14.60;;;7.20;99.90;;;;;;5091296;28;20036;-64
2022/11/18 07:38:04;;;;;;;29.23;14.90;;;7.20;99.90;;;;;;5093432;28;20039;-64
2022/11/18 07:40:30;;;;;;;29.15;14.45;;;7.20;99.90;;;;;;5084277;28;20492;-64
2022/11/18 07:42:55;;;;;;;29.13;15.18;;;7.20;99.90;;;;;;5068748;28;20448;-64
2022/11/18 07:45:22;;;;;;;30.55;16.25;;;7.20;99.90;;;;;;5071156;28;20409;-64
2022/11/18 07:47:48;;;;;;;30.00;16.05;;;7.20;99.90;;;;;;5090007;28;20111;-64
2022/11/18 07:50:14;;;;;;;27.27;13.82;;;7.20;99.90;;;;;;5083533;28;20186;-64
2022/11/18 07:52:40;;;;;;;28.38;14.77;;;7.20;99.90;;;;;;5086487;28;20048;-64
2022/11/18 07:55:06;;;;;;;24.63;13.52;;;7.20;99.90;;;;;;5088480;28;20063;-64
2022/11/18 07:57:31;;;;;;;26.35;14.15;;;7.20;99.90;;;;;;5082669;28;20417;-64
2022/11/18 07:59:57;;;;;;;24.65;13.98;;;7.20;99.90;;;;;;5062855;28;20478;-64
2022/11/18 08:02:22;;;;;;;26.65;13.07;;;7.20;99.90;;;;;;5088449;28;20098;-64
2022/11/18 08:04:48;;;;;;;29.33;14.30;;;7.30;99.90;;;;;;5090609;28;20086;-64
2022/11/18 08:07:13;;;;;;;24.58;12.52;;;7.20;99.90;;;;;;5070300;28;20047;-64
2022/11/18 08:09:39;;;;;;;24.10;13.40;;;7.20;99.90;;;;;;5089610;28;20040;-64
2022/11/18 08:12:05;;;;;;;24.05;12.68;;;7.20;99.90;;;;;;5083309;28;20036;-64
2022/11/18 08:14:30;;;;;;;26.45;13.00;;;7.20;99.90;;;;;;5087633;28;20032;-64
2022/11/18 08:16:56;;;;;;;23.33;12.80;;;7.20;99.90;;;;;;5072330;28;20085;-64
2022/11/18 08:19:22;;;;;;;24.70;12.98;;;7.20;99.90;;;;;;5086283;28;20663;-64
2022/11/18 08:21:47;;;;;;;23.35;11.90;;;7.20;99.90;;;;;;5088059;28;20042;-64
2022/11/18 08:24:13;;;;;;;26.90;13.30;;;7.20;99.90;;;;;;5089502;28;20039;-64
2022/11/18 08:26:38;;;;;;;25.13;12.80;;;7.20;99.90;;;;;;5089521;28;20036;-64
2022/11/18 08:29:04;;;;;;;26.92;13.27;;;7.20;99.90;;;;;;5088575;28;20059;-64
2022/11/18 08:31:30;;;;;;;26.63;12.68;;;7.20;99.90;;;;;;5089370;28;20404;-64
2022/11/18 08:34:05;;;;;;;23.42;12.63;;;7.20;99.90;;;;;;5089365;28;20082;-64
2022/11/18 08:36:36;;;;;;;20.98;11.20;;;7.20;99.90;;;;;;5089711;28;20050;-64
2022/11/18 08:39:04;;;;;;;22.25;12.57;;;7.20;99.90;;;;;;5070819;28;20106;-64
2022/11/18 08:41:35;;;;;;;24.45;11.90;;;7.20;99.90;;;;;;5088162;28;20048;-64
2022/11/18 08:44:02;;;;;;;24.13;11.80;;;7.20;99.90;;;;;;5084703;28;20024;-64
2022/11/18 08:46:29;;;;;;;22.42;12.32;;;7.20;99.90;;;;;;5087911;28;20485;-64
2022/11/18 08:48:54;;;;;;;20.73;11.25;;;7.10;99.90;;;;;;5087984;28;20035;-64
2022/11/18 08:51:20;;;;;;;22.63;12.13;;;7.10;99.90;;;;;;5092788;28;20032;-64
2022/11/18 08:53:45;;;;;;;32.88;17.58;;;7.10;99.90;;;;;;5089706;28;20079;-64
2022/11/18 08:56:17;;;;;;;20.48;11.57;;;7.10;99.90;;;;;;5077479;28;20241;-64
2022/11/18 08:58:44;;;;;;;23.98;12.52;;;7.10;99.90;;;;;;5070747;28;20044;-64
2022/11/18 09:01:10;;;;;;;22.65;12.25;;;7.10;99.90;;;;;;5086939;28;20481;-64
2022/11/18 09:03:35;;;;;;;23.40;12.15;;;7.10;99.90;;;;;;5091429;28;20081;-64
2022/11/18 09:06:11;;;;;;;22.98;12.13;;;7.10;99.90;;;;;;5094048;28;20339;-64
2022/11/18 09:08:37;;;;;;;22.88;12.77;;;7.10;99.90;;;;;;5073400;28;20043;-64
2022/11/18 09:11:15;;;;;;;21.42;11.65;;;7.10;99.90;;;;;;5090600;28;20044;-64
2022/11/18 09:13:40;;;;;;;25.33;12.35;;;7.10;99.90;;;;;;5085961;28;20477;-64
2022/11/18 09:16:07;;;;;;;18.83;10.85;;;7.00;99.90;;;;;;5087618;28;20055;-64
2022/11/18 09:18:33;;;;;;;19.48;10.88;;;7.00;99.90;;;;;;5088532;28;20089;-64
2022/11/18 09:21:04;;;;;;;19.77;10.48;;;7.10;99.90;;;;;;5071196;28;20174;-64
2022/11/18 09:23:31;;;;;;;17.87;10.50;;;7.10;99.90;;;;;;5096969;28;20028;-64
2022/11/18 09:25:57;;;;;;;17.00;9.07;;;7.10;99.90;;;;;;5092614;28;20789;-64
2022/11/18 09:28:23;;;;;;;16.25;9.75;;;7.10;99.90;;;;;;5092248;28;20076;-64
2022/11/18 09:30:49;;;;;;;20.73;10.40;;;7.10;99.90;;;;;;5093482;28;20053;-64
2022/11/18 09:33:15;;;;;;;20.17;10.88;;;7.10;99.90;;;;;;5095101;28;20574;-64
2022/11/18 09:35:42;;;;;;;19.23;11.65;;;7.10;99.90;;;;;;5087251;28;20337;-64
2022/11/18 09:38:07;;;;;;;19.90;11.38;;;7.10;99.90;;;;;;5092466;28;20089;-64
2022/11/18 09:40:42;;;;;;;21.08;11.52;;;7.10;99.90;;;;;;5090525;28;20044;-64
2022/11/18 09:43:20;;;;;;;21.17;11.10;;;7.10;99.90;;;;;;5086099;28;20032;-64
2022/11/18 09:45:53;;;;;;;22.45;11.77;;;7.10;99.90;;;;;;5091911;28;20032;-64
2022/11/18 09:49:11;;;;;;;16.65;11.00;;;7.10;99.90;;;;;;5085214;28;20039;-64
2022/11/18 09:51:08;;;;;;;22.45;12.13;;;7.00;99.90;;;;;;5087456;28;20036;-64
2022/11/18 09:53:34;;;;;;;18.88;11.20;;;7.10;99.90;;;;;;5088890;28;20082;-64
2022/11/18 09:56:01;;;;;;;20.92;11.55;;;7.10;99.90;;;;;;5088353;28;20036;-64
2022/11/18 09:58:33;;;;;;;19.33;10.93;;;7.10;99.90;;;;;;5087932;28;20032;-64
2022/11/18 10:01:00;;;;;;;21.40;11.55;;;7.10;99.90;;;;;;5091647;28;20047;-64
2022/11/18 10:03:31;;;;;;;18.50;11.02;;;7.10;99.90;;;;;;5088013;28;20055;-64
2022/11/18 10:06:18;;;;;;;20.70;10.57;;;7.10;99.90;;;;;;5065061;28;20030;-64
2022/11/18 10:09:18;;;;;;;21.10;10.98;;;7.10;99.90;;;;;;5090099;28;20068;-64
2022/11/18 10:12:00;;;;;;;19.95;11.25;;;7.10;99.90;;;;;;5073232;28;20629;-64
2022/11/18 10:15:06;;;;;;;16.65;9.88;;;7.10;99.90;;;;;;5089676;28;20036;-64
2022/11/18 10:17:50;;;;;;;20.15;10.77;;;7.00;99.90;;;;;;5055549;28;20060;-64
2022/11/18 10:20:37;;;;;;;20.40;10.93;;;7.00;99.90;;;;;;5080173;28;20041;-64
2022/11/18 10:23:34;;;;;;;22.67;11.52;;;7.00;99.90;;;;;;5089374;28;20392;-64
2022/11/18 10:26:00;;;;;;;22.25;11.35;;;7.00;99.90;;;;;;5064565;28;20071;-65
2022/11/18 10:28:28;;;;;;;16.60;10.00;;;7.00;99.90;;;;;;5090256;28;20067;-66
2022/11/18 10:31:02;;;;;;;20.70;10.73;;;7.00;99.90;;;;;;5085901;28;20044;-64
2022/11/18 10:33:28;;;;;;;19.25;10.63;;;7.00;99.90;;;;;;5086633;28;20118;-65
2022/11/18 10:36:16;;;;;;;18.40;10.82;;;7.00;99.90;;;;;;5092012;28;20032;-64
2022/11/18 10:38:42;;;;;;;21.42;11.90;;;7.00;99.90;;;;;;5086551;28;20074;-64
2022/11/18 10:41:16;;;;;;;22.90;11.10;;;7.00;99.90;;;;;;5086751;28;20032;-64
2022/11/18 10:43:54;;;;;;;20.27;10.48;;;7.00;99.90;;;;;;5089918;28;20042;-64
2022/11/18 10:46:30;;;;;;;19.63;11.38;;;7.10;99.90;;;;;;5080673;28;20106;-64
2022/11/18 10:49:07;;;;;;;24.00;11.95;;;7.10;99.90;;;;;;5063722;28;20540;-64
2022/11/18 10:51:34;;;;;;;20.80;11.52;;;7.10;99.90;;;;;;5084225;28;20168;-64
2022/11/18 10:54:08;;;;;;;18.45;11.00;;;7.10;99.90;;;;;;5070960;28;20035;-64
2022/11/18 10:56:51;;;;;;;18.73;11.27;;;7.10;99.90;;;;;;5071524;28;20106;-64
2022/11/18 10:59:33;;;;;;;24.05;11.77;;;7.00;99.90;;;;;;5081524;28;20047;-64
2022/11/18 11:02:11;;;;;;;22.55;11.85;;;7.00;99.90;;;;;;5085876;28;20032;-65
2022/11/18 11:04:38;;;;;;;18.83;11.18;;;7.00;99.90;;;;;;5089253;28;20092;-65
2022/11/18 11:07:14;;;;;;;18.05;10.27;;;7.00;99.90;;;;;;5070472;28;20516;-65
2022/11/18 11:09:40;;;;;;;15.63;9.13;;;7.00;99.90;;;;;;5091173;28;20068;-65
2022/11/18 11:12:16;;;;;;;21.10;10.70;;;6.90;99.90;;;;;;5073026;28;20089;-64
2022/11/18 11:14:57;;;;;;;16.85;9.57;;;7.00;99.90;;;;;;5087570;28;20590;-64
2022/11/18 11:18:40;;;;;;;15.15;9.25;;;7.00;99.90;;;;;;5073293;28;20074;-65
2022/11/18 11:20:35;;;;;;;17.85;9.95;;;6.90;99.90;;;;;;5088151;28;20051;-64
2022/11/18 11:23:11;;;;;;;15.52;9.20;;;6.90;99.90;;;;;;5080429;28;20035;-64
2022/11/18 11:25:52;;;;;;;15.38;8.80;;;6.90;99.90;;;;;;5085059;28;20041;-64
2022/11/18 11:28:24;;;;;;;;;;;6.80;99.90;;;;;;5085852;28;20040;-64
2022/11/18 11:31:05;;;;;;;17.02;9.10;;;6.70;99.90;;;;;;5078367;28;19928;-65
2022/11/18 11:33:46;;;;;;;16.08;9.15;;;6.70;99.90;;;;;;5079962;28;20085;-65
2022/11/18 11:36:35;;;;;;;;;;;6.80;99.90;;;;;;5080371;28;20036;-65
2022/11/18 11:39:30;;;;;;;12.52;7.75;;;6.70;99.90;;;;;;5084108;28;19916;-65
2022/11/18 11:42:31;;;;;;;12.13;7.32;;;6.60;99.90;;;;;;5087167;28;20508;-64
2022/11/18 11:45:21;;;;;;;12.55;7.38;;;6.60;99.90;;;;;;5080655;28;20036;-64
2022/11/18 11:48:08;;;;;;;13.43;7.45;;;6.50;99.90;;;;;;5085127;28;20095;-64
2022/11/18 11:51:02;;;;;;;11.93;7.00;;;6.50;99.90;;;;;;5079212;28;20537;-64
2022/11/18 11:53:49;;;;;;;12.80;7.95;;;6.50;99.90;;;;;;5089536;28;20501;-64
2022/11/18 11:56:32;;;;;;;12.57;7.70;;;6.50;99.90;;;;;;5080349;28;20136;-64
2022/11/18 11:59:17;;;;;;;14.18;7.78;;;6.50;99.90;;;;;;5085753;28;20064;-64
2022/11/18 12:02:06;;;;;;;18.67;8.63;;;6.40;99.90;;;;;;5070383;28;20043;-64
2022/11/18 12:04:57;;;;;;;16.17;8.35;;;6.40;99.90;;;;;;5079353;28;20040;-64
2022/11/18 12:07:28;;;;;;;17.35;8.25;;;6.40;99.90;;;;;;5089689;28;20050;-64
2022/11/18 12:10:15;;;;;;;13.18;7.90;;;6.40;99.90;;;;;;5086630;28;20028;-64
2022/11/18 12:13:18;;;;;;;13.45;8.32;;;6.30;99.90;;;;;;5082887;28;20044;-65
2022/11/18 12:16:08;;;;;;;17.52;8.75;;;6.40;99.90;;;;;;5085912;28;20068;-65
2022/11/18 12:18:58;;;;;;;16.20;8.93;;;6.40;99.90;;;;;;5085982;28;20028;-65
2022/11/18 12:21:44;;;;;;;16.65;8.95;;;6.40;99.90;;;;;;5071249;28;20040;-66
2022/11/18 12:24:36;;;;;;;19.55;9.70;;;6.40;99.90;;;;;;5082134;28;20033;-65
2022/11/18 12:27:12;;;;;;;18.33;9.65;;;6.40;99.90;;;;;;5075072;28;20033;-65
2022/11/18 12:29:49;;;;;;;19.98;9.65;;;6.40;99.90;;;;;;5074136;28;20040;-64
2022/11/18 12:32:41;;;;;;;21.25;10.05;;;6.40;99.90;;;;;;5072638;28;20051;-64
2022/11/18 12:35:10;;;;;;;16.45;9.75;;;6.40;99.90;;;;;;5086394;28;20032;-65
2022/11/18 12:37:45;;;;;;;15.73;8.93;;;6.40;99.90;;;;;;5083398;28;20090;-64
2022/11/18 12:40:32;;;;;;;18.90;9.85;;;6.40;99.90;;;;;;5081457;28;20056;-65
2022/11/18 12:45:44;;;;;;;21.35;11.43;;;6.40;99.90;;;;;;5078290;28;20106;-64
2022/11/18 12:48:22;;;;;;;17.23;9.32;;;6.40;99.90;;;;;;5088090;28;20078;-64
2022/11/18 12:50:59;;;;;;;15.35;8.75;;;6.40;99.90;;;;;;5074028;28;20044;-65
2022/11/18 12:53:37;;;;;;;20.73;10.18;;;6.30;99.90;;;;;;5079179;28;20039;-64
2022/11/18 12:56:25;;;;;;;19.65;10.32;;;6.40;99.90;;;;;;5093273;28;20560;-64
2022/11/18 12:58:55;;;;;;;22.08;11.35;;;6.40;99.90;;;;;;5078709;28;20063;-64
2022/11/18 13:01:33;;;;;;;23.15;12.70;;;6.40;99.90;;;;;;5091380;28;20036;-65
2022/11/18 13:04:13;;;;;;;22.55;11.98;;;6.30;99.90;;;;;;5088538;28;20036;-64
2022/11/18 13:06:39;;;;;;;24.98;11.32;;;6.30;99.90;;;;;;5093849;28;20509;-64
2022/11/18 13:09:14;;;;;;;22.17;11.95;;;6.30;99.90;;;;;;5075978;28;20165;-64
2022/11/18 13:11:46;;;;;;;23.67;13.00;;;6.30;99.90;;;;;;5090701;28;20036;-64
2022/11/18 13:20:34;;;;;;;21.83;11.40;;;6.30;99.90;;;;;;5083833;28;20116;-64
2022/11/18 13:26:13;;;;;;;20.90;12.02;;;6.20;99.90;;;;;;5085499;28;20513;-64